sensor_id;sensor_type;location;lat;lon;timestamp;P1;durP1;ratioP1;P2;durP2;ratioP2
37903;SDS011;23738;50.422;18.758;2023-09-19T12:56:48;2.90;;;1.10;;
37903;SDS011;23738;50.422;18.758;2023-09-19T12:59:28;4.90;;;1.30;;
37903;SDS011;23738;50.422;18.758;2023-09-19T13:02:04;3.80;;;1.90;;
37903;SDS011;23738;50.422;18.758;2023-09-19T13:04:40;2.80;;;1.40;;
37903;SDS011;23738;50.422;18.758;2023-09-19T13:10:13;2.30;;;1.20;;
37903;SDS011;23738;50.422;18.758;2023-09-19T13:12:43;2.60;;;1.50;;
37903;SDS011;23738;50.422;18.758;2023-09-19T13:15:14;3.00;;;1.50;;
37903;SDS011;23738;50.422;18.758;2023-09-19T13:17:47;1.50;;;1.00;;
37903;SDS011;23738;50.422;18.758;2023-09-19T13:20:23;3.60;;;1.50;;
37903;SDS011;23738;50.422;18.758;2023-09-19T13:22:55;2.60;;;1.20;;
37903;SDS011;23738;50.422;18.758;2023-09-19T13:25:27;2.10;;;1.20;;
37903;SDS011;23738;50.422;18.758;2023-09-19T13:27:58;1.50;;;1.10;;
37903;SDS011;23738;50.422;18.758;2023-09-19T13:30:31;1.80;;;1.40;;
37903;SDS011;23738;50.422;18.758;2023-09-19T13:33:09;4.30;;;1.10;;
37903;SDS011;23738;50.422;18.758;2023-09-19T13:35:45;2.10;;;1.10;;
37903;SDS011;23738;50.422;18.758;2023-09-19T13:38:15;2.40;;;1.20;;
37903;SDS011;23738;50.422;18.758;2023-09-19T13:40:48;1.70;;;1.10;;
37903;SDS011;23738;50.422;18.758;2023-09-19T13:43:19;1.60;;;1.10;;
37903;SDS011;23738;50.422;18.758;2023-09-19T13:45:48;4.90;;;1.30;;
37903;SDS011;23738;50.422;18.758;2023-09-19T13:48:18;2.70;;;1.30;;
37903;SDS011;23738;50.422;18.758;2023-09-19T13:50:49;2.50;;;1.40;;
37903;SDS011;23738;50.422;18.758;2023-09-19T13:53:18;5.10;;;1.10;;
37903;SDS011;23738;50.422;18.758;2023-09-19T13:55:47;3.80;;;1.30;;
37903;SDS011;23738;50.422;18.758;2023-09-19T13:58:17;1.30;;;0.80;;
37903;SDS011;23738;50.422;18.758;2023-09-19T14:00:47;3.20;;;1.00;;
37903;SDS011;23738;50.422;18.758;2023-09-19T14:03:17;1.40;;;1.00;;
37903;SDS011;23738;50.422;18.758;2023-09-19T14:05:47;0.90;;;0.70;;
37903;SDS011;23738;50.422;18.758;2023-09-19T14:08:18;1.30;;;0.80;;
37903;SDS011;23738;50.422;18.758;2023-09-19T14:10:48;1.40;;;1.00;;
37903;SDS011;23738;50.422;18.758;2023-09-19T14:13:18;1.80;;;1.00;;
37903;SDS011;23738;50.422;18.758;2023-09-19T14:15:47;1.80;;;1.00;;
37903;SDS011;23738;50.422;18.758;2023-09-19T14:18:17;2.10;;;1.00;;
37903;SDS011;23738;50.422;18.758;2023-09-19T14:20:48;1.50;;;0.90;;
37903;SDS011;23738;50.422;18.758;2023-09-19T14:23:19;1.60;;;1.20;;
37903;SDS011;23738;50.422;18.758;2023-09-19T14:25:49;2.50;;;1.20;;
37903;SDS011;23738;50.422;18.758;2023-09-19T14:28:20;1.90;;;0.90;;
37903;SDS011;23738;50.422;18.758;2023-09-19T14:30:51;2.50;;;1.30;;
37903;SDS011;23738;50.422;18.758;2023-09-19T14:33:20;1.60;;;1.00;;
37903;SDS011;23738;50.422;18.758;2023-09-19T14:35:50;1.80;;;1.00;;
37903;SDS011;23738;50.422;18.758;2023-09-19T14:38:19;2.20;;;0.90;;
37903;SDS011;23738;50.422;18.758;2023-09-19T14:40:48;1.80;;;0.90;;
37903;SDS011;23738;50.422;18.758;2023-09-19T14:43:26;2.30;;;0.70;;
37903;SDS011;23738;50.422;18.758;2023-09-19T14:45:56;2.10;;;1.10;;
37903;SDS011;23738;50.422;18.758;2023-09-19T14:48:29;1.10;;;0.70;;
37903;SDS011;23738;50.422;18.758;2023-09-19T14:51:03;1.40;;;0.70;;
37903;SDS011;23738;50.422;18.758;2023-09-19T14:53:35;1.70;;;0.70;;
37903;SDS011;23738;50.422;18.758;2023-09-19T14:56:06;1.30;;;0.90;;
37903;SDS011;23738;50.422;18.758;2023-09-19T14:58:37;1.60;;;0.90;;
37903;SDS011;23738;50.422;18.758;2023-09-19T15:01:08;1.70;;;1.00;;
37903;SDS011;23738;50.422;18.758;2023-09-19T15:03:39;1.50;;;0.70;;
37903;SDS011;23738;50.422;18.758;2023-09-19T15:06:10;1.10;;;0.70;;
37903;SDS011;23738;50.422;18.758;2023-09-19T15:08:41;2.70;;;0.70;;
37903;SDS011;23738;50.422;18.758;2023-09-19T15:11:14;1.30;;;0.80;;
37903;SDS011;23738;50.422;18.758;2023-09-19T15:13:44;1.30;;;0.60;;
37903;SDS011;23738;50.422;18.758;2023-09-19T15:16:14;3.50;;;0.70;;
37903;SDS011;23738;50.422;18.758;2023-09-19T15:18:43;1.10;;;0.80;;
37903;SDS011;23738;50.422;18.758;2023-09-19T15:21:14;0.90;;;0.60;;
37903;SDS011;23738;50.422;18.758;2023-09-19T15:23:44;0.80;;;0.70;;
37903;SDS011;23738;50.422;18.758;2023-09-19T15:26:13;1.20;;;0.60;;
37903;SDS011;23738;50.422;18.758;2023-09-19T15:28:47;1.20;;;0.60;;
37903;SDS011;23738;50.422;18.758;2023-09-19T15:31:16;0.90;;;0.60;;
37903;SDS011;23738;50.422;18.758;2023-09-19T15:33:45;0.60;;;0.50;;
37903;SDS011;23738;50.422;18.758;2023-09-19T15:36:15;1.60;;;0.70;;
37903;SDS011;23738;50.422;18.758;2023-09-19T15:38:58;0.80;;;0.50;;
37903;SDS011;23738;50.422;18.758;2023-09-19T15:41:30;1.40;;;0.60;;
37903;SDS011;23738;50.422;18.758;2023-09-19T15:44:01;2.40;;;0.60;;
37903;SDS011;23738;50.422;18.758;2023-09-19T15:46:32;3.10;;;0.80;;
37903;SDS011;23738;50.422;18.758;2023-09-19T15:49:02;2.50;;;0.60;;
37903;SDS011;23738;50.422;18.758;2023-09-19T15:51:34;1.80;;;0.80;;
37903;SDS011;23738;50.422;18.758;2023-09-19T15:54:06;0.90;;;0.60;;
37903;SDS011;23738;50.422;18.758;2023-09-19T15:56:39;1.60;;;0.80;;
37903;SDS011;23738;50.422;18.758;2023-09-19T15:59:09;2.60;;;0.70;;
37903;SDS011;23738;50.422;18.758;2023-09-19T16:01:39;0.80;;;0.50;;
37903;SDS011;23738;50.422;18.758;2023-09-19T16:04:10;0.70;;;0.70;;
37903;SDS011;23738;50.422;18.758;2023-09-19T16:06:40;1.30;;;0.60;;
37903;SDS011;23738;50.422;18.758;2023-09-19T16:09:09;1.80;;;0.60;;
37903;SDS011;23738;50.422;18.758;2023-09-19T16:11:39;1.00;;;0.90;;
37903;SDS011;23738;50.422;18.758;2023-09-19T16:14:08;0.90;;;0.80;;
37903;SDS011;23738;50.422;18.758;2023-09-19T16:16:37;1.10;;;0.80;;
37903;SDS011;23738;50.422;18.758;2023-09-19T16:19:07;2.10;;;0.80;;
37903;SDS011;23738;50.422;18.758;2023-09-19T16:21:37;1.30;;;0.70;;
37903;SDS011;23738;50.422;18.758;2023-09-19T16:24:09;0.90;;;0.70;;
37903;SDS011;23738;50.422;18.758;2023-09-19T16:26:39;1.90;;;0.90;;
37903;SDS011;23738;50.422;18.758;2023-09-19T16:29:08;3.30;;;1.50;;
37903;SDS011;23738;50.422;18.758;2023-09-19T16:31:37;4.40;;;1.20;;
37903;SDS011;23738;50.422;18.758;2023-09-19T16:34:07;1.30;;;1.00;;
37903;SDS011;23738;50.422;18.758;2023-09-19T16:36:37;2.90;;;1.60;;
37903;SDS011;23738;50.422;18.758;2023-09-19T16:39:06;2.80;;;1.70;;
37903;SDS011;23738;50.422;18.758;2023-09-19T16:41:37;2.50;;;1.40;;
37903;SDS011;23738;50.422;18.758;2023-09-19T16:44:08;2.70;;;1.60;;
37903;SDS011;23738;50.422;18.758;2023-09-19T16:46:37;3.40;;;2.30;;
37903;SDS011;23738;50.422;18.758;2023-09-19T16:49:08;3.00;;;2.40;;
37903;SDS011;23738;50.422;18.758;2023-09-19T16:51:37;3.50;;;2.50;;
37903;SDS011;23738;50.422;18.758;2023-09-19T16:54:08;5.30;;;2.60;;
37903;SDS011;23738;50.422;18.758;2023-09-19T16:56:37;4.00;;;2.70;;
37903;SDS011;23738;50.422;18.758;2023-09-19T16:59:07;5.80;;;2.30;;
37903;SDS011;23738;50.422;18.758;2023-09-19T17:01:36;3.30;;;1.70;;
37903;SDS011;23738;50.422;18.758;2023-09-19T17:04:06;4.00;;;2.80;;
37903;SDS011;23738;50.422;18.758;2023-09-19T17:06:36;2.50;;;1.80;;
37903;SDS011;23738;50.422;18.758;2023-09-19T17:09:05;3.10;;;2.00;;
37903;SDS011;23738;50.422;18.758;2023-09-19T17:11:36;3.90;;;1.90;;
37903;SDS011;23738;50.422;18.758;2023-09-19T17:14:05;3.10;;;1.70;;
37903;SDS011;23738;50.422;18.758;2023-09-19T17:16:36;3.10;;;1.80;;
37903;SDS011;23738;50.422;18.758;2023-09-19T17:19:05;2.70;;;1.70;;
37903;SDS011;23738;50.422;18.758;2023-09-19T17:21:35;3.50;;;1.60;;
37903;SDS011;23738;50.422;18.758;2023-09-19T17:24:05;4.00;;;1.90;;
37903;SDS011;23738;50.422;18.758;2023-09-19T17:26:35;2.90;;;2.20;;
37903;SDS011;23738;50.422;18.758;2023-09-19T17:29:04;2.90;;;2.10;;
37903;SDS011;23738;50.422;18.758;2023-09-19T17:31:34;2.40;;;1.80;;
37903;SDS011;23738;50.422;18.758;2023-09-19T17:34:05;1.70;;;1.50;;
37903;SDS011;23738;50.422;18.758;2023-09-19T17:36:34;2.40;;;1.80;;
37903;SDS011;23738;50.422;18.758;2023-09-19T17:39:04;2.60;;;2.20;;
37903;SDS011;23738;50.422;18.758;2023-09-19T17:41:35;4.00;;;3.60;;
37903;SDS011;23738;50.422;18.758;2023-09-19T17:44:06;5.10;;;4.00;;
37903;SDS011;23738;50.422;18.758;2023-09-19T17:46:38;5.10;;;4.60;;
37903;SDS011;23738;50.422;18.758;2023-09-19T17:49:07;8.70;;;7.80;;
37903;SDS011;23738;50.422;18.758;2023-09-19T17:51:38;17.10;;;13.70;;
37903;SDS011;23738;50.422;18.758;2023-09-19T17:54:07;17.00;;;15.20;;
37903;SDS011;23738;50.422;18.758;2023-09-19T17:56:37;19.70;;;16.10;;
37903;SDS011;23738;50.422;18.758;2023-09-19T17:59:07;25.90;;;21.70;;
37903;SDS011;23738;50.422;18.758;2023-09-19T18:01:36;27.80;;;21.80;;
37903;SDS011;23738;50.422;18.758;2023-09-19T18:04:05;27.40;;;24.10;;
37903;SDS011;23738;50.422;18.758;2023-09-19T18:06:35;33.70;;;20.30;;
37903;SDS011;23738;50.422;18.758;2023-09-19T18:09:05;24.40;;;20.90;;
37903;SDS011;23738;50.422;18.758;2023-09-19T18:11:34;26.60;;;23.10;;
37903;SDS011;23738;50.422;18.758;2023-09-19T18:14:04;24.70;;;20.60;;
37903;SDS011;23738;50.422;18.758;2023-09-19T18:16:34;20.50;;;18.50;;
37903;SDS011;23738;50.422;18.758;2023-09-19T18:19:04;19.20;;;17.30;;
37903;SDS011;23738;50.422;18.758;2023-09-19T18:21:33;18.40;;;15.20;;
37903;SDS011;23738;50.422;18.758;2023-09-19T18:24:04;18.00;;;14.00;;
37903;SDS011;23738;50.422;18.758;2023-09-19T18:26:40;10.90;;;9.90;;
37903;SDS011;23738;50.422;18.758;2023-09-19T18:29:10;10.00;;;9.10;;
37903;SDS011;23738;50.422;18.758;2023-09-19T18:31:40;11.50;;;10.10;;
37903;SDS011;23738;50.422;18.758;2023-09-19T18:34:11;9.20;;;8.00;;
37903;SDS011;23738;50.422;18.758;2023-09-19T18:36:41;9.50;;;8.20;;
37903;SDS011;23738;50.422;18.758;2023-09-19T18:39:10;8.10;;;7.40;;
37903;SDS011;23738;50.422;18.758;2023-09-19T18:41:41;7.40;;;6.80;;
37903;SDS011;23738;50.422;18.758;2023-09-19T18:44:13;10.80;;;7.60;;
37903;SDS011;23738;50.422;18.758;2023-09-19T18:46:42;10.50;;;8.00;;
37903;SDS011;23738;50.422;18.758;2023-09-19T18:49:14;8.30;;;6.90;;
37903;SDS011;23738;50.422;18.758;2023-09-19T18:51:44;9.20;;;7.10;;
37903;SDS011;23738;50.422;18.758;2023-09-19T18:54:14;6.20;;;5.70;;
37903;SDS011;23738;50.422;18.758;2023-09-19T18:56:43;6.80;;;6.10;;
37903;SDS011;23738;50.422;18.758;2023-09-19T18:59:13;7.90;;;6.90;;
37903;SDS011;23738;50.422;18.758;2023-09-19T19:01:42;7.60;;;6.90;;
37903;SDS011;23738;50.422;18.758;2023-09-19T19:04:12;7.80;;;6.90;;
37903;SDS011;23738;50.422;18.758;2023-09-19T19:06:41;10.20;;;7.00;;
37903;SDS011;23738;50.422;18.758;2023-09-19T19:09:11;13.40;;;6.40;;
37903;SDS011;23738;50.422;18.758;2023-09-19T19:11:41;13.70;;;10.10;;
37903;SDS011;23738;50.422;18.758;2023-09-19T19:14:10;21.80;;;17.30;;
37903;SDS011;23738;50.422;18.758;2023-09-19T19:16:40;12.40;;;11.10;;
37903;SDS011;23738;50.422;18.758;2023-09-19T19:19:10;10.90;;;9.50;;
37903;SDS011;23738;50.422;18.758;2023-09-19T19:21:40;9.10;;;7.10;;
37903;SDS011;23738;50.422;18.758;2023-09-19T19:24:09;6.40;;;5.60;;
37903;SDS011;23738;50.422;18.758;2023-09-19T19:26:39;6.70;;;4.70;;
37903;SDS011;23738;50.422;18.758;2023-09-19T19:29:08;5.60;;;4.70;;
37903;SDS011;23738;50.422;18.758;2023-09-19T19:31:39;4.80;;;4.40;;
37903;SDS011;23738;50.422;18.758;2023-09-19T19:34:08;5.10;;;4.30;;
37903;SDS011;23738;50.422;18.758;2023-09-19T19:36:38;4.90;;;4.40;;
37903;SDS011;23738;50.422;18.758;2023-09-19T19:39:11;4.90;;;4.10;;
37903;SDS011;23738;50.422;18.758;2023-09-19T19:41:41;7.30;;;4.60;;
37903;SDS011;23738;50.422;18.758;2023-09-19T19:44:11;5.80;;;4.30;;
37903;SDS011;23738;50.422;18.758;2023-09-19T19:46:40;5.30;;;4.70;;
37903;SDS011;23738;50.422;18.758;2023-09-19T19:49:09;5.10;;;4.10;;
37903;SDS011;23738;50.422;18.758;2023-09-19T19:51:39;5.30;;;4.40;;
37903;SDS011;23738;50.422;18.758;2023-09-19T19:54:11;5.60;;;4.60;;
37903;SDS011;23738;50.422;18.758;2023-09-19T19:56:40;4.80;;;4.30;;
37903;SDS011;23738;50.422;18.758;2023-09-19T19:59:10;4.80;;;4.10;;
37903;SDS011;23738;50.422;18.758;2023-09-19T20:01:40;5.90;;;4.80;;
37903;SDS011;23738;50.422;18.758;2023-09-19T20:04:09;7.30;;;4.30;;
37903;SDS011;23738;50.422;18.758;2023-09-19T20:06:39;6.70;;;4.50;;
37903;SDS011;23738;50.422;18.758;2023-09-19T20:09:11;6.60;;;4.00;;
37903;SDS011;23738;50.422;18.758;2023-09-19T20:11:41;4.80;;;4.30;;
37903;SDS011;23738;50.422;18.758;2023-09-19T20:14:10;5.80;;;4.00;;
37903;SDS011;23738;50.422;18.758;2023-09-19T20:16:41;8.40;;;5.10;;
37903;SDS011;23738;50.422;18.758;2023-09-19T20:19:12;8.60;;;5.20;;
37903;SDS011;23738;50.422;18.758;2023-09-19T20:21:41;5.20;;;4.70;;
37903;SDS011;23738;50.422;18.758;2023-09-19T20:24:11;8.10;;;4.20;;
37903;SDS011;23738;50.422;18.758;2023-09-19T20:26:46;6.90;;;4.80;;
37903;SDS011;23738;50.422;18.758;2023-09-19T20:29:15;8.90;;;4.90;;
37903;SDS011;23738;50.422;18.758;2023-09-19T20:31:44;6.70;;;5.60;;
37903;SDS011;23738;50.422;18.758;2023-09-19T20:34:14;8.50;;;6.50;;
37903;SDS011;23738;50.422;18.758;2023-09-19T20:36:43;9.60;;;6.30;;
37903;SDS011;23738;50.422;18.758;2023-09-19T20:39:12;8.60;;;6.70;;
37903;SDS011;23738;50.422;18.758;2023-09-19T20:41:43;7.20;;;5.70;;
37903;SDS011;23738;50.422;18.758;2023-09-19T20:44:12;9.60;;;7.80;;
37903;SDS011;23738;50.422;18.758;2023-09-19T20:46:42;7.70;;;6.70;;
37903;SDS011;23738;50.422;18.758;2023-09-19T20:49:11;7.90;;;6.90;;
37903;SDS011;23738;50.422;18.758;2023-09-19T20:51:40;10.20;;;8.50;;
37903;SDS011;23738;50.422;18.758;2023-09-19T20:54:10;11.40;;;7.30;;
37903;SDS011;23738;50.422;18.758;2023-09-19T20:56:43;11.30;;;6.80;;
37903;SDS011;23738;50.422;18.758;2023-09-19T20:59:13;9.70;;;7.40;;
37903;SDS011;23738;50.422;18.758;2023-09-19T21:01:42;8.40;;;7.10;;
37903;SDS011;23738;50.422;18.758;2023-09-19T21:04:15;10.90;;;8.50;;
37903;SDS011;23738;50.422;18.758;2023-09-19T21:06:44;11.70;;;9.10;;
37903;SDS011;23738;50.422;18.758;2023-09-19T21:09:13;11.70;;;9.10;;
37903;SDS011;23738;50.422;18.758;2023-09-19T21:11:43;12.00;;;8.20;;
37903;SDS011;23738;50.422;18.758;2023-09-19T21:14:12;13.10;;;7.60;;
37903;SDS011;23738;50.422;18.758;2023-09-19T21:16:42;10.60;;;7.90;;
37903;SDS011;23738;50.422;18.758;2023-09-19T21:19:12;11.70;;;8.60;;
37903;SDS011;23738;50.422;18.758;2023-09-19T21:21:41;13.30;;;10.00;;
37903;SDS011;23738;50.422;18.758;2023-09-19T21:24:12;12.40;;;9.80;;
37903;SDS011;23738;50.422;18.758;2023-09-19T21:26:43;12.40;;;9.80;;
37903;SDS011;23738;50.422;18.758;2023-09-19T21:29:13;15.90;;;9.40;;
37903;SDS011;23738;50.422;18.758;2023-09-19T21:31:42;9.30;;;7.20;;
37903;SDS011;23738;50.422;18.758;2023-09-19T21:34:13;12.20;;;8.20;;
37903;SDS011;23738;50.422;18.758;2023-09-19T21:36:42;10.60;;;8.80;;
37903;SDS011;23738;50.422;18.758;2023-09-19T21:39:12;15.70;;;9.70;;
37903;SDS011;23738;50.422;18.758;2023-09-19T21:41:42;11.10;;;9.70;;
37903;SDS011;23738;50.422;18.758;2023-09-19T21:44:12;14.90;;;10.10;;
37903;SDS011;23738;50.422;18.758;2023-09-19T21:46:41;12.00;;;8.90;;
37903;SDS011;23738;50.422;18.758;2023-09-19T21:49:11;11.20;;;7.70;;
37903;SDS011;23738;50.422;18.758;2023-09-19T21:51:40;10.10;;;8.50;;
37903;SDS011;23738;50.422;18.758;2023-09-19T21:54:09;12.20;;;9.70;;
37903;SDS011;23738;50.422;18.758;2023-09-19T21:56:39;11.00;;;9.50;;
37903;SDS011;23738;50.422;18.758;2023-09-19T21:59:08;10.70;;;8.70;;
37903;SDS011;23738;50.422;18.758;2023-09-19T22:01:38;13.50;;;9.90;;
37903;SDS011;23738;50.422;18.758;2023-09-19T22:04:08;11.40;;;9.10;;
37903;SDS011;23738;50.422;18.758;2023-09-19T22:06:37;13.80;;;8.80;;
37903;SDS011;23738;50.422;18.758;2023-09-19T22:09:07;9.80;;;8.10;;
37903;SDS011;23738;50.422;18.758;2023-09-19T22:11:36;10.70;;;9.20;;
37903;SDS011;23738;50.422;18.758;2023-09-19T22:14:06;13.50;;;9.10;;
37903;SDS011;23738;50.422;18.758;2023-09-19T22:16:36;16.50;;;10.30;;
37903;SDS011;23738;50.422;18.758;2023-09-19T22:19:06;9.70;;;7.90;;
37903;SDS011;23738;50.422;18.758;2023-09-19T22:21:36;13.20;;;8.90;;
37903;SDS011;23738;50.422;18.758;2023-09-19T22:24:07;10.70;;;8.00;;
37903;SDS011;23738;50.422;18.758;2023-09-19T22:26:37;9.00;;;7.80;;
37903;SDS011;23738;50.422;18.758;2023-09-19T22:29:12;9.40;;;7.70;;
37903;SDS011;23738;50.422;18.758;2023-09-19T22:31:42;16.00;;;9.40;;
37903;SDS011;23738;50.422;18.758;2023-09-19T22:34:13;9.10;;;8.10;;
37903;SDS011;23738;50.422;18.758;2023-09-19T22:36:42;14.80;;;9.80;;
37903;SDS011;23738;50.422;18.758;2023-09-19T22:39:14;9.30;;;8.30;;
37903;SDS011;23738;50.422;18.758;2023-09-19T22:41:47;9.10;;;8.20;;
37903;SDS011;23738;50.422;18.758;2023-09-19T22:44:17;8.80;;;7.90;;
37903;SDS011;23738;50.422;18.758;2023-09-19T22:46:47;9.60;;;8.60;;
37903;SDS011;23738;50.422;18.758;2023-09-19T22:49:17;11.30;;;9.90;;
37903;SDS011;23738;50.422;18.758;2023-09-19T22:51:47;12.50;;;9.70;;
37903;SDS011;23738;50.422;18.758;2023-09-19T22:54:18;11.90;;;10.70;;
37903;SDS011;23738;50.422;18.758;2023-09-19T22:56:53;10.00;;;7.50;;
37903;SDS011;23738;50.422;18.758;2023-09-19T22:59:24;7.70;;;6.80;;
37903;SDS011;23738;50.422;18.758;2023-09-19T23:01:54;10.40;;;8.70;;
37903;SDS011;23738;50.422;18.758;2023-09-19T23:04:24;9.90;;;9.00;;
37903;SDS011;23738;50.422;18.758;2023-09-19T23:06:54;12.10;;;10.10;;
37903;SDS011;23738;50.422;18.758;2023-09-19T23:09:29;9.80;;;8.80;;
37903;SDS011;23738;50.422;18.758;2023-09-19T23:12:01;12.90;;;9.90;;
37903;SDS011;23738;50.422;18.758;2023-09-19T23:14:34;7.80;;;6.90;;
37903;SDS011;23738;50.422;18.758;2023-09-19T23:17:06;7.20;;;6.60;;
37903;SDS011;23738;50.422;18.758;2023-09-19T23:19:38;9.40;;;8.60;;
37903;SDS011;23738;50.422;18.758;2023-09-19T23:22:08;13.30;;;8.90;;
37903;SDS011;23738;50.422;18.758;2023-09-19T23:24:41;11.30;;;8.60;;
37903;SDS011;23738;50.422;18.758;2023-09-19T23:27:15;9.00;;;8.10;;
37903;SDS011;23738;50.422;18.758;2023-09-19T23:29:51;8.60;;;7.70;;
37903;SDS011;23738;50.422;18.758;2023-09-19T23:32:21;8.70;;;7.80;;
37903;SDS011;23738;50.422;18.758;2023-09-19T23:34:51;8.60;;;7.50;;
37903;SDS011;23738;50.422;18.758;2023-09-19T23:37:20;8.40;;;7.60;;
37903;SDS011;23738;50.422;18.758;2023-09-19T23:39:50;10.20;;;8.30;;
37903;SDS011;23738;50.422;18.758;2023-09-19T23:42:20;13.40;;;8.90;;
37903;SDS011;23738;50.422;18.758;2023-09-19T23:44:49;13.90;;;9.30;;
37903;SDS011;23738;50.422;18.758;2023-09-19T23:47:21;8.30;;;7.50;;
37903;SDS011;23738;50.422;18.758;2023-09-19T23:49:51;8.00;;;7.20;;
37903;SDS011;23738;50.422;18.758;2023-09-19T23:52:23;8.00;;;7.20;;
37903;SDS011;23738;50.422;18.758;2023-09-19T23:54:53;9.10;;;8.20;;
37903;SDS011;23738;50.422;18.758;2023-09-19T23:57:26;8.80;;;7.90;;
37903;SDS011;23738;50.422;18.758;2023-09-19T23:59:55;12.40;;;9.40;;
